Time;durP1;ratioP1;P1;durP2;ratioP2;P2;SDS_P1;SDS_P2;PMS_P1;PMS_P2;Temp;Humidity;BMP_temperature;BMP_pressure;BME280_temperature;BME280_humidity;BME280_pressure;Samples;Min_cycle;Max_cycle;Signal;HPM_P1;HPM_P2
2022/10/28 00:01:55;;;;;;;7.50;5.90;;;15.40;99.90;;;;;;5105377;28;20590;-69
2022/10/28 00:04:22;;;;;;;7.73;6.07;;;15.40;99.90;;;;;;5105247;28;20539;-70
2022/10/28 00:06:49;;;;;;;7.90;6.37;;;15.40;99.90;;;;;;5105758;28;20532;-69
2022/10/28 00:09:15;;;;;;;7.20;6.10;;;15.40;99.90;;;;;;5105936;28;20529;-70
2022/10/28 00:11:44;;;;;;;7.53;6.67;;;15.40;99.90;;;;;;5107585;28;20449;-69
2022/10/28 00:14:12;;;;;;;10.20;6.87;;;15.40;99.90;;;;;;5108372;28;20484;-68
2022/10/28 00:16:39;;;;;;;7.50;6.80;;;15.40;99.90;;;;;;5108049;28;20488;-70
2022/10/28 00:19:07;;;;;;;7.10;6.07;;;15.50;99.90;;;;;;5107630;28;20477;-69
2022/10/28 00:21:36;;;;;;;7.27;6.37;;;15.50;99.90;;;;;;5108255;28;20457;-69
2022/10/28 00:24:03;;;;;;;8.73;6.30;;;15.50;99.90;;;;;;5108006;28;20818;-70
2022/10/28 00:26:32;;;;;;;8.00;6.00;;;15.50;99.90;;;;;;5108495;28;20488;-69
2022/10/28 00:29:03;;;;;;;6.97;6.27;;;15.50;99.90;;;;;;5108226;28;20516;-69
2022/10/28 00:31:31;;;;;;;7.67;6.60;;;15.50;99.90;;;;;;5111622;28;20481;-69
2022/10/28 00:33:59;;;;;;;7.43;6.40;;;15.50;99.90;;;;;;5109165;28;20473;-70
2022/10/28 00:36:28;;;;;;;8.60;6.60;;;15.50;99.90;;;;;;5107795;28;20488;-69
2022/10/28 00:38:56;;;;;;;11.07;6.27;;;15.50;99.90;;;;;;5108497;28;20453;-69
2022/10/28 00:41:26;;;;;;;8.30;6.00;;;15.50;99.90;;;;;;5109000;28;20588;-69
2022/10/28 00:43:56;;;;;;;8.03;7.00;;;15.50;99.90;;;;;;5110051;28;20507;-69
2022/10/28 00:46:29;;;;;;;9.50;5.47;;;15.40;99.90;;;;;;5111628;28;20484;-69
2022/10/28 00:49:01;;;;;;;8.37;6.37;;;15.40;99.90;;;;;;5111262;28;20496;-69
2022/10/28 00:51:31;;;;;;;7.20;6.50;;;15.40;99.90;;;;;;5110910;28;20466;-69
2022/10/28 00:53:58;;;;;;;8.90;5.93;;;15.40;99.90;;;;;;5111968;28;20516;-69
2022/10/28 00:56:27;;;;;;;7.17;6.47;;;15.40;99.90;;;;;;5111884;28;20881;-69
2022/10/28 00:58:57;;;;;;;7.10;6.27;;;15.40;99.90;;;;;;5109560;28;20477;-69
2022/10/28 01:01:26;;;;;;;7.50;6.47;;;15.40;99.90;;;;;;5111036;28;20488;-69
2022/10/28 01:03:54;;;;;;;9.20;6.57;;;15.40;99.90;;;;;;5110695;28;20524;-69
2022/10/28 01:06:21;;;;;;;7.60;6.20;;;15.40;99.90;;;;;;5111266;28;20548;-69
2022/10/28 01:08:48;;;;;;;8.00;6.60;;;15.40;99.90;;;;;;5111757;28;20536;-69
2022/10/28 01:11:35;;;;;;;11.40;6.43;;;15.40;99.90;;;;;;5111366;28;20772;-69
2022/10/28 01:14:20;;;;;;;8.23;6.30;;;15.40;99.90;;;;;;5111468;28;20501;-69
2022/10/28 01:17:15;;;;;;;7.93;6.73;;;15.40;99.90;;;;;;5111707;28;20648;-69
2022/10/28 01:20:10;;;;;;;6.63;6.00;;;15.40;99.90;;;;;;5111113;28;20544;-69
2022/10/28 01:22:44;;;;;;;7.60;6.47;;;15.40;99.90;;;;;;5096524;28;20544;-69
2022/10/28 01:25:39;;;;;;;8.70;6.87;;;15.40;99.90;;;;;;5111158;28;20468;-69
2022/10/28 01:28:16;;;;;;;7.77;6.80;;;15.30;99.90;;;;;;5109486;28;20545;-70
2022/10/28 01:31:06;;;;;;;10.47;6.53;;;15.30;99.90;;;;;;5109699;28;20505;-70
2022/10/28 01:33:36;;;;;;;10.37;6.70;;;15.30;99.90;;;;;;5109680;28;20937;-69
2022/10/28 01:36:10;;;;;;;6.93;6.23;;;15.30;99.90;;;;;;5090726;28;20453;-69
2022/10/28 01:38:48;;;;;;;9.63;7.20;;;15.30;99.90;;;;;;5106064;28;20461;-68
2022/10/28 01:41:17;;;;;;;8.17;6.70;;;15.30;99.90;;;;;;5109202;28;20457;-69
2022/10/28 01:43:50;;;;;;;13.03;6.47;;;15.20;99.90;;;;;;5107500;28;20540;-73
2022/10/28 01:46:24;;;;;;;8.33;6.00;;;15.30;99.90;;;;;;5090088;28;20452;-69
2022/10/28 01:48:55;;;;;;;9.57;6.50;;;15.20;99.90;;;;;;5107430;28;20457;-70
2022/10/28 01:51:27;;;;;;;7.20;6.50;;;15.20;99.90;;;;;;5107610;28;20445;-69
2022/10/28 01:53:56;;;;;;;7.10;6.30;;;15.20;99.90;;;;;;5108885;28;20502;-69
2022/10/28 01:56:27;;;;;;;8.30;7.00;;;15.20;99.90;;;;;;5107611;28;20445;-69
2022/10/28 01:58:56;;;;;;;13.57;6.77;;;15.20;99.90;;;;;;5106951;28;20483;-69
2022/10/28 02:01:27;;;;;;;8.47;6.50;;;15.20;99.90;;;;;;5107264;28;20449;-70
2022/10/28 02:03:54;;;;;;;7.20;6.10;;;15.20;99.90;;;;;;5106339;28;20540;-69
2022/10/28 02:06:25;;;;;;;9.73;6.27;;;15.20;99.90;;;;;;5106069;28;20457;-71
2022/10/28 02:09:07;;;;;;;8.67;6.37;;;15.20;99.90;;;;;;5105723;28;20445;-69
2022/10/28 02:12:01;;;;;;;6.37;5.77;;;15.20;99.90;;;;;;5108415;28;20467;-69
2022/10/28 02:14:41;;;;;;;9.23;6.33;;;15.20;99.90;;;;;;5109954;28;20494;-69
2022/10/28 02:17:21;;;;;;;9.57;6.00;;;15.20;99.90;;;;;;5109303;28;20664;-68
2022/10/28 02:19:54;;;;;;;7.83;6.47;;;15.20;99.90;;;;;;5109696;28;20508;-69
2022/10/28 02:22:24;;;;;;;8.20;6.70;;;15.10;99.90;;;;;;5109767;28;20480;-69
2022/10/28 02:25:02;;;;;;;8.30;6.57;;;15.10;99.90;;;;;;5107607;28;20525;-69
2022/10/28 02:27:34;;;;;;;7.77;6.53;;;15.10;99.90;;;;;;5107766;28;20513;-69
2022/10/28 02:30:06;;;;;;;9.60;6.80;;;15.10;99.90;;;;;;5107098;28;20926;-69
2022/10/28 02:32:40;;;;;;;11.37;7.03;;;15.10;99.90;;;;;;5108877;28;20830;-69
2022/10/28 02:35:12;;;;;;;10.60;6.63;;;15.10;99.90;;;;;;5109193;28;20528;-69
2022/10/28 02:37:41;;;;;;;8.03;7.20;;;15.10;99.90;;;;;;5108749;28;20507;-69
2022/10/28 02:40:13;;;;;;;8.20;6.60;;;15.00;99.90;;;;;;5108134;28;20450;-69
2022/10/28 02:42:46;;;;;;;9.83;6.77;;;15.00;99.90;;;;;;5109577;28;20520;-69
2022/10/28 02:45:17;;;;;;;7.10;6.40;;;15.00;99.90;;;;;;5109916;28;20501;-69
2022/10/28 02:47:48;;;;;;;9.40;7.50;;;15.00;99.90;;;;;;5108604;28;20448;-69
2022/10/28 02:50:20;;;;;;;7.57;6.80;;;14.90;99.90;;;;;;5108150;28;20798;-69
2022/10/28 02:52:51;;;;;;;8.87;7.27;;;14.90;99.90;;;;;;5107082;28;20505;-69
2022/10/28 02:55:20;;;;;;;8.23;6.73;;;14.90;99.90;;;;;;5108021;28;20465;-69
2022/10/28 02:57:48;;;;;;;8.13;6.67;;;14.90;99.90;;;;;;5106710;28;20523;-69
2022/10/28 03:00:19;;;;;;;9.00;6.60;;;14.90;99.90;;;;;;5109287;28;20481;-69
2022/10/28 03:02:47;;;;;;;9.10;6.37;;;14.90;99.90;;;;;;5108647;28;20548;-70
2022/10/28 03:05:14;;;;;;;8.20;6.13;;;14.80;99.90;;;;;;5109069;28;20460;-69
2022/10/28 03:07:41;;;;;;;7.00;6.30;;;14.80;99.90;;;;;;5110014;28;20477;-69
2022/10/28 03:10:09;;;;;;;8.53;7.00;;;14.90;99.90;;;;;;5109276;28;20525;-69
2022/10/28 03:12:35;;;;;;;8.93;6.90;;;14.90;99.90;;;;;;5109343;28;20488;-69
2022/10/28 03:15:03;;;;;;;9.73;7.33;;;14.90;99.90;;;;;;5108793;28;20545;-71
2022/10/28 03:17:30;;;;;;;7.70;6.83;;;14.90;99.90;;;;;;5108199;28;20564;-69
2022/10/28 03:19:58;;;;;;;12.70;6.73;;;14.80;99.90;;;;;;5106227;28;20481;-70
2022/10/28 03:22:25;;;;;;;7.70;6.90;;;14.80;99.90;;;;;;5105346;28;20464;-70
2022/10/28 03:24:52;;;;;;;8.77;6.30;;;14.80;99.90;;;;;;5104777;28;20468;-70
2022/10/28 03:27:19;;;;;;;9.00;8.00;;;14.70;99.90;;;;;;5106761;28;20472;-70
2022/10/28 03:29:45;;;;;;;9.50;6.33;;;14.70;99.90;;;;;;5106128;28;20557;-70
2022/10/28 03:32:12;;;;;;;7.63;6.40;;;14.80;99.90;;;;;;5106385;28;20488;-70
2022/10/28 03:34:39;;;;;;;8.13;6.93;;;14.80;99.90;;;;;;5107307;28;20536;-70
2022/10/28 03:37:07;;;;;;;8.67;7.03;;;14.80;99.90;;;;;;5090176;28;20940;-69
2022/10/28 03:39:34;;;;;;;11.10;6.70;;;14.70;99.90;;;;;;5109796;28;20576;-69
2022/10/28 03:42:01;;;;;;;8.20;6.40;;;14.70;99.90;;;;;;5109723;28;20477;-69
2022/10/28 03:44:28;;;;;;;6.63;6.03;;;14.80;99.90;;;;;;5108984;28;20485;-69
2022/10/28 03:46:55;;;;;;;9.50;6.30;;;14.80;99.90;;;;;;5108819;28;20513;-69
2022/10/28 03:49:21;;;;;;;7.53;6.57;;;14.70;99.90;;;;;;5108326;28;20484;-69
2022/10/28 03:51:49;;;;;;;12.10;6.43;;;14.70;99.90;;;;;;5109480;28;20513;-69
2022/10/28 03:54:17;;;;;;;8.10;6.63;;;14.70;99.90;;;;;;5109982;28;20453;-69
2022/10/28 03:56:44;;;;;;;7.23;6.13;;;14.70;99.90;;;;;;5108651;28;20460;-70
2022/10/28 03:59:11;;;;;;;8.50;7.07;;;14.70;99.90;;;;;;5108017;28;20513;-68
2022/10/28 04:01:37;;;;;;;9.90;6.60;;;14.60;99.90;;;;;;5109228;28;20830;-69
2022/10/28 04:04:05;;;;;;;9.27;6.60;;;14.60;99.90;;;;;;5110043;28;20441;-69
2022/10/28 04:06:32;;;;;;;7.77;7.07;;;14.60;99.90;;;;;;5112851;28;20477;-70
2022/10/28 04:08:58;;;;;;;9.10;7.37;;;14.60;99.90;;;;;;5113702;28;20473;-70
2022/10/28 04:11:27;;;;;;;9.50;6.57;;;14.60;99.90;;;;;;5113929;28;20523;-69
2022/10/28 04:13:53;;;;;;;9.63;6.70;;;14.60;99.90;;;;;;5114056;28;20450;-69
2022/10/28 04:16:20;;;;;;;7.77;6.80;;;14.60;99.90;;;;;;5113537;28;20456;-69
2022/10/28 04:18:47;;;;;;;12.00;7.27;;;14.60;99.90;;;;;;5109599;28;20561;-70
2022/10/28 04:21:14;;;;;;;6.97;6.27;;;14.60;99.90;;;;;;5108669;28;20488;-70
2022/10/28 04:23:41;;;;;;;7.73;6.50;;;14.50;99.90;;;;;;5106770;28;20496;-70
2022/10/28 04:26:08;;;;;;;11.90;7.80;;;14.50;99.90;;;;;;5107787;28;20481;-70
2022/10/28 04:28:36;;;;;;;10.37;7.23;;;14.50;99.90;;;;;;5107786;28;20485;-70
2022/10/28 04:31:03;;;;;;;9.47;7.43;;;14.50;99.90;;;;;;5112645;28;20484;-69
2022/10/28 04:33:29;;;;;;;10.80;6.97;;;14.60;99.90;;;;;;5112294;28;20453;-69
2022/10/28 04:35:56;;;;;;;8.10;7.30;;;14.60;99.90;;;;;;5112802;28;20889;-68
2022/10/28 04:38:24;;;;;;;7.53;6.73;;;14.60;99.90;;;;;;5112357;28;20565;-69
2022/10/28 04:40:50;;;;;;;11.47;7.47;;;14.50;99.90;;;;;;5112971;28;20453;-69
2022/10/28 04:43:17;;;;;;;10.93;6.93;;;14.50;99.90;;;;;;5113477;28;20525;-70
2022/10/28 04:45:46;;;;;;;10.70;7.13;;;14.50;99.90;;;;;;5112503;28;20490;-69
2022/10/28 04:48:13;;;;;;;11.57;7.23;;;14.50;99.90;;;;;;5112457;28;20495;-69
2022/10/28 04:50:40;;;;;;;8.83;7.43;;;14.50;99.90;;;;;;5109992;28;20450;-69
2022/10/28 04:53:07;;;;;;;10.33;6.80;;;14.50;99.90;;;;;;5111579;28;20473;-69
2022/10/28 04:55:34;;;;;;;8.83;6.60;;;14.50;99.90;;;;;;5111675;28;20457;-70
2022/10/28 04:58:01;;;;;;;7.73;7.00;;;14.50;99.90;;;;;;5111601;28;20480;-69
2022/10/28 05:00:29;;;;;;;11.17;7.87;;;14.40;99.90;;;;;;5112482;28;20449;-69
2022/10/28 05:03:02;;;;;;;9.37;7.37;;;14.40;99.90;;;;;;5112172;28;20465;-69
2022/10/28 05:05:29;;;;;;;10.30;7.53;;;14.40;99.90;;;;;;5112293;28;20434;-69
2022/10/28 05:07:56;;;;;;;8.23;7.43;;;14.40;99.90;;;;;;5110837;28;20453;-69
2022/10/28 05:10:23;;;;;;;10.53;7.83;;;14.40;99.90;;;;;;5111337;28;20449;-71
2022/10/28 05:12:50;;;;;;;8.60;7.37;;;14.30;99.90;;;;;;5113414;28;20479;-70
2022/10/28 05:15:17;;;;;;;10.13;7.80;;;14.30;99.90;;;;;;5105672;28;20457;-67
2022/10/28 05:17:44;;;;;;;11.40;8.20;;;14.30;99.90;;;;;;5097317;28;20479;-67
2022/10/28 05:20:15;;;;;;;9.40;7.97;;;14.30;99.90;;;;;;5097231;28;20463;-68
2022/10/28 05:22:46;;;;;;;10.10;8.13;;;14.30;99.90;;;;;;5097420;28;20438;-66
2022/10/28 05:25:13;;;;;;;11.20;7.50;;;14.30;99.90;;;;;;5097236;28;20438;-67
2022/10/28 05:27:40;;;;;;;11.20;9.00;;;14.20;99.90;;;;;;5096476;28;20469;-66
2022/10/28 05:30:08;;;;;;;17.20;12.87;;;14.30;99.90;;;;;;5096960;28;20448;-67
2022/10/28 05:32:35;;;;;;;11.53;8.57;;;14.30;99.90;;;;;;5096933;28;20463;-66
2022/10/28 05:35:02;;;;;;;10.53;8.30;;;14.30;99.90;;;;;;5096596;28;20650;-66
2022/10/28 05:37:30;;;;;;;11.23;8.37;;;14.30;99.90;;;;;;5096571;28;20910;-67
2022/10/28 05:39:57;;;;;;;10.77;8.33;;;14.30;99.90;;;;;;5096787;28;20473;-67
2022/10/28 05:42:24;;;;;;;8.50;7.70;;;14.20;99.90;;;;;;5096971;28;20769;-67
2022/10/28 05:44:51;;;;;;;11.87;8.10;;;14.20;99.90;;;;;;5096437;28;20463;-66
2022/10/28 05:47:17;;;;;;;9.73;8.17;;;14.30;99.90;;;;;;5096760;28;20544;-68
2022/10/28 05:49:44;;;;;;;10.73;7.90;;;14.30;99.90;;;;;;5096472;28;20536;-67
2022/10/28 05:52:11;;;;;;;12.37;8.80;;;14.30;99.90;;;;;;5096523;28;20803;-66
2022/10/28 05:54:39;;;;;;;10.67;7.77;;;14.30;99.90;;;;;;5096299;28;20475;-67
2022/10/28 05:57:06;;;;;;;11.37;7.70;;;14.30;99.90;;;;;;5096379;28;20457;-67
2022/10/28 05:59:33;;;;;;;9.23;7.90;;;14.30;99.90;;;;;;5096264;28;20809;-66
2022/10/28 06:02:00;;;;;;;11.30;6.80;;;14.30;99.90;;;;;;5096386;28;20454;-67
2022/10/28 06:04:26;;;;;;;10.70;8.23;;;14.40;99.90;;;;;;5096221;28;20463;-67
2022/10/28 06:06:55;;;;;;;12.10;9.17;;;14.40;99.90;;;;;;5096213;28;20463;-67
2022/10/28 06:09:22;;;;;;;10.77;8.23;;;14.40;99.90;;;;;;5096103;28;20801;-67
2022/10/28 06:11:50;;;;;;;15.07;8.50;;;14.50;99.90;;;;;;5096250;28;20453;-66
2022/10/28 06:14:17;;;;;;;8.97;7.70;;;14.50;99.90;;;;;;5095910;28;20468;-67
2022/10/28 06:16:43;;;;;;;11.07;7.17;;;14.50;99.90;;;;;;5095608;28;20476;-68
2022/10/28 06:19:10;;;;;;;10.77;6.70;;;14.60;99.90;;;;;;5095705;28;20480;-68
2022/10/28 06:21:37;;;;;;;12.33;7.70;;;14.60;99.90;;;;;;5096211;28;20548;-66
2022/10/28 06:24:04;;;;;;;9.40;7.30;;;14.60;99.90;;;;;;5096335;28;20457;-67
2022/10/28 06:26:31;;;;;;;12.60;8.10;;;14.70;99.90;;;;;;5095548;28;20468;-69
2022/10/28 06:28:59;;;;;;;8.90;6.97;;;14.70;99.90;;;;;;5094988;28;20483;-69
2022/10/28 06:31:26;;;;;;;11.13;6.93;;;14.70;99.90;;;;;;5096072;28;20464;-69
2022/10/28 06:33:53;;;;;;;8.50;6.80;;;14.80;99.90;;;;;;5095840;28;20468;-68
2022/10/28 06:36:20;;;;;;;15.80;7.27;;;14.80;99.90;;;;;;5095968;28;20914;-69
2022/10/28 06:38:47;;;;;;;8.57;7.00;;;14.80;99.90;;;;;;5095660;28;20487;-69
2022/10/28 06:41:13;;;;;;;9.20;6.00;;;14.80;99.90;;;;;;5096408;28;20573;-69
2022/10/28 06:43:40;;;;;;;9.30;6.97;;;14.90;99.90;;;;;;5095379;28;20458;-68
2022/10/28 06:46:08;;;;;;;7.47;6.57;;;14.90;99.90;;;;;;5095290;28;20932;-69
2022/10/28 06:48:35;;;;;;;10.93;8.17;;;14.90;99.90;;;;;;5095676;28;20459;-69
2022/10/28 06:51:02;;;;;;;11.43;7.40;;;14.90;99.90;;;;;;5095937;28;20548;-68
2022/10/28 06:53:29;;;;;;;10.33;7.80;;;14.90;99.90;;;;;;5095555;28;20536;-68
2022/10/28 06:55:57;;;;;;;12.00;8.53;;;15.00;99.90;;;;;;5095606;28;20551;-68
2022/10/28 06:58:25;;;;;;;16.47;7.60;;;15.00;99.90;;;;;;5095428;28;20550;-69
2022/10/28 07:00:52;;;;;;;9.13;6.97;;;15.00;99.90;;;;;;5094956;28;20917;-71
2022/10/28 07:03:21;;;;;;;10.93;7.50;;;15.00;99.90;;;;;;5095499;28;20453;-67
2022/10/28 07:05:50;;;;;;;15.00;8.70;;;15.00;99.90;;;;;;5095240;28;20453;-68
2022/10/28 07:08:17;;;;;;;10.90;7.17;;;15.00;99.90;;;;;;5095038;28;20453;-70
2022/10/28 07:10:44;;;;;;;11.37;7.40;;;15.00;99.90;;;;;;5095340;28;20549;-68
2022/10/28 07:13:10;;;;;;;11.20;7.50;;;15.00;99.90;;;;;;5095295;28;20467;-68
2022/10/28 07:15:37;;;;;;;11.10;7.23;;;15.00;99.90;;;;;;5095580;28;20457;-68
2022/10/28 07:18:04;;;;;;;9.27;5.90;;;15.00;99.90;;;;;;5095564;28;20544;-67
2022/10/28 07:20:32;;;;;;;13.60;7.43;;;15.10;99.90;;;;;;5095409;28;20579;-68
2022/10/28 07:23:00;;;;;;;11.47;7.20;;;15.20;99.90;;;;;;5095757;28;20457;-68
2022/10/28 07:25:28;;;;;;;8.80;7.37;;;15.20;99.90;;;;;;5094865;28;20457;-69
2022/10/28 07:27:57;;;;;;;12.80;8.17;;;15.20;99.90;;;;;;5094424;28;20929;-68
2022/10/28 07:30:24;;;;;;;17.80;7.90;;;15.30;99.90;;;;;;5094895;28;20448;-68
2022/10/28 07:32:50;;;;;;;9.83;6.50;;;15.30;99.90;;;;;;5095578;28;20544;-70
2022/10/28 07:42:02;;;;;;;9.07;6.10;;;15.50;99.90;;;;;;5095028;28;20401;-68
2022/10/28 07:44:29;;;;;;;10.37;6.80;;;15.60;99.90;;;;;;5095215;28;20468;-68
2022/10/28 07:46:56;;;;;;;7.37;6.70;;;15.70;99.90;;;;;;5094788;28;20462;-69
2022/10/28 07:49:23;;;;;;;9.33;6.40;;;15.70;99.90;;;;;;5094737;28;20456;-68
2022/10/28 07:51:50;;;;;;;13.77;5.50;;;15.80;99.90;;;;;;5094659;28;20453;-67
2022/10/28 07:54:17;;;;;;;9.60;6.57;;;15.90;99.90;;;;;;5094157;28;20462;-68
2022/10/28 07:56:44;;;;;;;7.77;5.90;;;16.00;99.90;;;;;;5094107;28;20479;-67
2022/10/28 07:59:12;;;;;;;9.07;6.00;;;16.10;99.90;;;;;;5094290;28;20503;-69
2022/10/28 08:01:39;;;;;;;10.33;5.27;;;16.20;99.90;;;;;;5094496;28;20627;-69
2022/10/28 08:04:06;;;;;;;7.90;5.20;;;16.30;99.90;;;;;;5093172;28;20460;-69
2022/10/28 08:06:34;;;;;;;19.20;6.50;;;16.40;99.90;;;;;;5093523;28;20540;-68
2022/10/28 08:09:01;;;;;;;14.23;6.10;;;16.50;99.90;;;;;;5093883;28;20453;-69
2022/10/28 08:11:28;;;;;;;8.37;5.47;;;16.70;99.90;;;;;;5093971;28;20500;-67
2022/10/28 08:13:55;;;;;;;7.60;5.53;;;16.70;99.90;;;;;;5093947;28;20544;-69
2022/10/28 08:16:23;;;;;;;8.90;5.70;;;16.80;99.90;;;;;;5094073;28;20449;-69
2022/10/28 08:18:51;;;;;;;7.80;4.90;;;16.90;99.90;;;;;;5096525;28;20468;-67
2022/10/28 08:21:18;;;;;;;9.53;5.13;;;17.00;99.90;;;;;;5093820;28;20459;-68
2022/10/28 08:23:45;;;;;;;11.80;5.90;;;17.10;99.90;;;;;;5094145;28;20560;-67
2022/10/28 08:26:13;;;;;;;9.30;5.10;;;17.20;99.90;;;;;;5094068;28;20550;-67
2022/10/28 08:28:40;;;;;;;6.60;4.97;;;17.20;99.90;;;;;;5093800;28;20984;-67
2022/10/28 08:31:08;;;;;;;12.23;5.23;;;17.30;99.90;;;;;;5094096;28;20457;-67
2022/10/28 08:33:38;;;;;;;15.70;5.00;;;17.50;99.90;;;;;;5094459;28;20457;-68
2022/10/28 08:36:07;;;;;;;7.57;4.97;;;17.60;99.90;;;;;;5093986;28;20509;-68
2022/10/28 08:38:34;;;;;;;7.20;4.93;;;17.60;99.90;;;;;;5093807;28;20457;-68
2022/10/28 08:41:14;;;;;;;8.73;4.50;;;17.60;99.90;;;;;;5093872;28;20584;-67
2022/10/28 08:43:58;;;;;;;12.63;4.90;;;17.60;99.90;;;;;;5093826;28;20441;-67
2022/10/28 08:46:40;;;;;;;7.07;4.17;;;17.60;99.90;;;;;;5093741;28;20441;-68
2022/10/28 08:49:14;;;;;;;9.00;5.43;;;17.60;99.90;;;;;;5093775;28;20786;-67
2022/10/28 08:51:45;;;;;;;6.23;4.40;;;17.70;99.90;;;;;;5095824;28;20446;-67
2022/10/28 08:54:18;;;;;;;6.50;5.20;;;17.70;99.90;;;;;;5097421;28;20438;-67
2022/10/28 08:56:47;;;;;;;10.50;5.00;;;17.80;99.90;;;;;;5097161;28;20856;-68
2022/10/28 08:59:29;;;;;;;14.57;11.50;;;17.80;99.90;;;;;;5096937;28;20517;-67
2022/10/28 09:01:59;;;;;;;5.70;4.87;;;17.90;99.90;;;;;;5097217;28;20456;-67
2022/10/28 09:04:37;;;;;;;8.63;5.03;;;18.00;99.90;;;;;;5096970;28;20442;-68
2022/10/28 09:07:05;;;;;;;5.77;4.43;;;18.10;99.90;;;;;;5097475;28;20601;-67
2022/10/28 09:09:33;;;;;;;6.93;4.27;;;18.20;99.90;;;;;;5097023;28;20536;-68
2022/10/28 09:12:15;;;;;;;9.50;4.90;;;18.30;99.90;;;;;;5097426;28;20450;-68
2022/10/28 09:14:55;;;;;;;9.30;4.53;;;18.30;99.90;;;;;;5097718;28;20444;-67
2022/10/28 09:17:32;;;;;;;6.73;4.80;;;18.40;99.90;;;;;;5096721;28;20441;-67
2022/10/28 09:20:12;;;;;;;7.50;4.83;;;18.50;99.90;;;;;;5096791;28;20491;-67
2022/10/28 09:22:45;;;;;;;7.63;4.90;;;18.50;99.90;;;;;;5096862;28;20445;-68
2022/10/28 09:25:21;;;;;;;11.70;4.80;;;18.50;99.90;;;;;;5097713;28;20449;-68
2022/10/28 09:28:00;;;;;;;11.00;5.20;;;18.60;99.90;;;;;;5097520;28;20485;-68
2022/10/28 09:30:40;;;;;;;8.50;4.57;;;18.80;99.90;;;;;;5098775;28;20434;-67
2022/10/28 09:33:35;;;;;;;9.93;4.50;;;18.90;99.90;;;;;;5098891;28;20513;-67
2022/10/28 09:36:05;;;;;;;8.33;4.73;;;19.00;99.90;;;;;;5096242;28;20453;-68
2022/10/28 09:38:34;;;;;;;8.50;5.23;;;19.20;99.90;;;;;;5096590;28;20463;-67
2022/10/28 09:41:06;;;;;;;13.30;5.90;;;19.30;99.90;;;;;;5096516;28;20488;-67
2022/10/28 09:43:35;;;;;;;10.43;5.83;;;19.30;99.90;;;;;;5096302;28;20438;-67
2022/10/28 09:46:10;;;;;;;7.53;4.50;;;19.40;99.90;;;;;;5096298;28;20479;-66
2022/10/28 09:48:39;;;;;;;16.47;6.40;;;19.40;99.90;;;;;;5096578;28;20433;-68
2022/10/28 09:51:16;;;;;;;10.17;5.23;;;19.50;99.90;;;;;;5096263;28;20453;-67
2022/10/28 09:53:48;;;;;;;7.90;4.43;;;19.50;99.90;;;;;;5096910;28;20451;-68
2022/10/28 09:56:15;;;;;;;6.20;4.67;;;19.50;99.90;;;;;;5098027;28;20827;-67
2022/10/28 09:58:46;;;;;;;8.60;4.70;;;19.60;99.90;;;;;;5097322;28;20464;-68
2022/10/28 10:01:14;;;;;;;4.90;4.40;;;19.70;99.90;;;;;;5097039;28;20481;-68
2022/10/28 10:03:42;;;;;;;8.17;4.10;;;19.80;99.90;;;;;;5098188;28;20453;-68
2022/10/28 10:06:13;;;;;;;6.13;4.10;;;19.80;99.90;;;;;;5099214;28;20453;-68
2022/10/28 10:08:41;;;;;;;9.50;4.20;;;19.80;99.90;;;;;;5099204;28;20857;-68
2022/10/28 10:11:14;;;;;;;7.77;5.10;;;19.80;99.90;;;;;;5099544;28;20783;-68
2022/10/28 10:13:43;;;;;;;8.03;4.70;;;19.90;99.90;;;;;;5099023;28;20874;-68
2022/10/28 10:16:15;;;;;;;10.70;4.27;;;20.00;99.90;;;;;;5099003;28;20544;-68
2022/10/28 10:18:47;;;;;;;7.20;4.93;;;19.90;99.90;;;;;;5098603;28;20442;-68
2022/10/28 10:21:18;;;;;;;6.87;3.90;;;20.00;99.90;;;;;;5098142;28;20466;-68
2022/10/28 10:23:46;;;;;;;6.40;4.30;;;19.90;99.90;;;;;;5098590;28;20493;-68
2022/10/28 10:26:15;;;;;;;6.90;3.87;;;19.80;99.90;;;;;;5099837;28;20493;-68
2022/10/28 10:28:45;;;;;;;4.63;3.90;;;19.90;99.90;;;;;;5100922;28;20506;-68
2022/10/28 10:31:19;;;;;;;13.33;4.83;;;20.00;99.90;;;;;;5100547;28;20536;-68
2022/10/28 10:33:50;;;;;;;7.80;4.00;;;20.00;99.90;;;;;;5099620;28;20452;-68
2022/10/28 10:36:22;;;;;;;9.77;4.07;;;20.10;99.90;;;;;;5099167;28;20462;-69
2022/10/28 10:38:52;;;;;;;12.50;4.00;;;20.20;99.90;;;;;;5098948;28;20442;-68
2022/10/28 10:41:34;;;;;;;7.80;3.60;;;20.20;99.90;;;;;;5099798;28;20466;-68
2022/10/28 10:44:01;;;;;;;8.30;3.63;;;20.30;99.90;;;;;;5100609;28;20441;-67
2022/10/28 10:46:28;;;;;;;7.83;3.57;;;20.40;99.90;;;;;;5099878;28;20533;-70
2022/10/28 10:49:11;;;;;;;5.40;4.10;;;20.40;99.90;;;;;;5097815;28;20453;-69
2022/10/28 10:51:41;;;;;;;6.27;3.60;;;20.50;99.90;;;;;;5097725;28;20464;-70
2022/10/28 10:54:14;;;;;;;9.80;4.10;;;20.70;99.90;;;;;;5097717;28;20500;-68
2022/10/28 10:56:41;;;;;;;9.33;3.67;;;20.70;99.90;;;;;;5096581;28;20441;-69
2022/10/28 10:59:21;;;;;;;6.30;3.60;;;20.80;99.90;;;;;;5096405;28;20978;-72
2022/10/28 11:01:48;;;;;;;6.10;3.20;;;20.90;99.90;;;;;;5094526;28;20475;-68
2022/10/28 11:04:18;;;;;;;5.80;4.10;;;21.00;99.90;;;;;;5095066;28;20544;-67
2022/10/28 11:06:51;;;;;;;6.33;3.07;;;21.10;99.90;;;;;;5095026;28;20461;-68
2022/10/28 11:09:21;;;;;;;8.97;3.43;;;21.20;99.90;;;;;;5096198;28;20814;-67
2022/10/28 11:11:48;;;;;;;6.20;3.30;;;21.30;99.90;;;;;;5095448;28;20438;-67
2022/10/28 11:14:20;;;;;;;10.97;3.43;;;21.40;99.90;;;;;;5094619;28;20464;-68
2022/10/28 11:16:49;;;;;;;7.37;3.63;;;21.50;99.90;;;;;;5095859;28;20437;-68
2022/10/28 11:19:21;;;;;;;12.97;4.13;;;21.60;99.90;;;;;;5095422;28;20884;-67
2022/10/28 11:22:01;;;;;;;6.17;3.50;;;21.70;99.90;;;;;;5095170;28;20476;-68
2022/10/28 11:24:46;;;;;;;8.73;4.20;;;21.80;99.90;;;;;;5095408;28;20886;-67
2022/10/28 11:27:24;;;;;;;9.03;3.80;;;21.90;99.90;;;;;;5095605;28;20437;-68
2022/10/28 11:29:50;;;;;;;12.17;3.63;;;22.00;99.90;;;;;;5095305;28;20763;-68
2022/10/28 11:32:36;;;;;;;6.83;2.97;;;22.20;99.90;;;;;;5094893;28;20543;-68
2022/10/28 11:35:20;;;;;;;8.33;3.30;;;22.30;99.90;;;;;;5095516;28;20437;-68
2022/10/28 11:37:59;;;;;;;8.50;3.80;;;22.40;99.90;;;;;;5094711;28;20448;-67
2022/10/28 11:40:34;;;;;;;5.93;3.60;;;22.50;99.90;;;;;;5094585;28;20465;-67
2022/10/28 11:43:16;;;;;;;7.43;3.17;;;22.60;99.90;;;;;;5094630;28;20524;-67
2022/10/28 11:45:54;;;;;;;10.57;4.43;;;22.90;99.90;;;;;;5095282;28;20438;-67
2022/10/28 11:48:36;;;;;;;6.70;3.87;;;23.30;99.90;;;;;;5094600;28;20441;-67
2022/10/28 11:51:18;;;;;;;7.73;2.83;;;24.20;99.90;;;;;;5095032;28;20455;-68
2022/10/28 11:54:15;;;;;;;15.17;8.80;;;25.20;99.90;;;;;;5096178;28;20434;-66
2022/10/28 11:56:45;;;;;;;10.40;3.70;;;26.20;99.90;;;;;;5082082;28;20468;-68
2022/10/28 11:59:39;;;;;;;7.07;3.00;;;27.00;99.90;;;;;;5095787;28;20532;-69
2022/10/28 12:02:23;;;;;;;9.23;3.47;;;27.80;99.90;;;;;;5089837;28;20569;-67
2022/10/28 12:05:01;;;;;;;5.07;3.07;;;28.90;99.90;;;;;;5096453;28;20433;-68
2022/10/28 12:07:46;;;;;;;7.43;3.47;;;28.60;99.90;;;;;;5096149;28;20528;-68
2022/10/28 12:10:30;;;;;;;7.63;4.03;;;28.00;99.90;;;;;;5096011;28;20439;-68
2022/10/28 12:13:08;;;;;;;8.50;3.63;;;27.40;99.90;;;;;;5095928;28;20528;-68
2022/10/28 12:15:41;;;;;;;4.90;2.53;;;26.90;99.90;;;;;;5095556;28;20448;-68
2022/10/28 12:18:15;;;;;;;9.27;4.73;;;26.70;99.90;;;;;;5096090;28;20457;-68
2022/10/28 12:20:50;;;;;;;11.87;4.93;;;26.80;99.90;;;;;;5096050;28;20465;-68
2022/10/28 12:23:20;;;;;;;8.73;3.20;;;26.70;99.90;;;;;;5096368;28;20481;-67
2022/10/28 12:25:53;;;;;;;5.67;3.57;;;26.50;99.90;;;;;;5098565;28;20453;-67
2022/10/28 12:28:25;;;;;;;7.93;4.00;;;26.40;99.90;;;;;;5100049;28;20822;-68
2022/10/28 12:30:53;;;;;;;7.10;3.47;;;26.70;99.90;;;;;;5099863;28;20904;-68
2022/10/28 12:33:25;;;;;;;15.77;3.57;;;27.00;99.90;;;;;;5100667;28;20457;-68
2022/10/28 12:35:56;;;;;;;10.17;3.97;;;27.50;99.90;;;;;;5099681;28;20438;-68
2022/10/28 12:38:27;;;;;;;8.30;3.10;;;28.00;99.90;;;;;;5100383;28;20445;-68
2022/10/28 12:41:02;;;;;;;5.77;3.20;;;28.40;99.90;;;;;;5099313;28;20481;-68
2022/10/28 12:43:33;;;;;;;8.27;2.83;;;28.70;99.90;;;;;;5100129;28;20864;-68
2022/10/28 12:46:00;;;;;;;5.10;2.70;;;29.30;99.90;;;;;;5100487;28;20441;-67
2022/10/28 12:48:31;;;;;;;6.50;3.03;;;29.80;99.10;;;;;;5099829;28;20517;-68
2022/10/28 12:51:03;;;;;;;7.97;3.10;;;30.10;97.20;;;;;;5099553;28;20434;-68
2022/10/28 12:53:35;;;;;;;22.23;3.70;;;30.20;95.40;;;;;;5100064;28;20469;-68
2022/10/28 12:56:10;;;;;;;10.80;3.13;;;30.50;93.90;;;;;;5101033;28;20461;-69
2022/10/28 12:58:47;;;;;;;4.67;3.27;;;30.70;91.70;;;;;;5101695;28;20471;-67
2022/10/28 13:01:16;;;;;;;6.90;3.00;;;30.50;90.50;;;;;;5101521;28;20533;-67
2022/10/28 13:03:43;;;;;;;4.53;2.73;;;30.30;90.40;;;;;;5099641;28;20463;-66
2022/10/28 13:06:47;;;;;;;8.10;3.03;;;30.30;90.10;;;;;;5099300;28;20530;-69
2022/10/28 13:09:38;;;;;;;6.37;2.90;;;30.50;87.90;;;;;;5056697;28;20449;-67